Time;durP1;ratioP1;P1;durP2;ratioP2;P2;SDS_P1;SDS_P2;PMS_P1;PMS_P2;Temp;Humidity;BMP_temperature;BMP_pressure;BME280_temperature;BME280_humidity;BME280_pressure;Samples;Min_cycle;Max_cycle;Signal;HPM_P1;HPM_P2
2022/06/09 00:01:17;;;;;;;5.58;5.15;;;;;;;15.75;58.46;100159.36;1701110;81;20853;-69
2022/06/09 00:04:13;;;;;;;6.95;6.35;;;;;;;15.72;58.47;100156.88;1698780;83;20925;-69
2022/06/09 00:07:07;;;;;;;6.72;5.92;;;;;;;15.72;58.61;100156.88;1729903;82;20913;-69
2022/06/09 00:09:40;;;;;;;7.90;7.10;;;;;;;15.73;58.74;100155.97;1722643;82;21471;-69
2022/06/09 00:12:09;;;;;;;11.15;8.20;;;;;;;15.70;58.82;100160.02;1725256;81;20921;-69
2022/06/09 00:14:37;;;;;;;6.58;5.97;;;;;;;15.72;58.86;100156.03;1743571;81;20850;-69
2022/06/09 00:17:04;;;;;;;6.40;5.80;;;;;;;15.70;58.93;100153.95;1743719;82;21362;-69
2022/06/09 00:19:32;;;;;;;5.45;5.05;;;;;;;15.69;58.99;100160.08;1743836;81;20890;-69
2022/06/09 00:21:59;;;;;;;5.60;4.62;;;;;;;15.67;59.05;100164.06;1749497;80;20937;-69
2022/06/09 00:24:25;;;;;;;5.00;4.53;;;;;;;15.63;59.10;100158.59;1760984;80;20943;-69
2022/06/09 00:26:52;;;;;;;5.72;5.17;;;;;;;15.64;59.10;100155.07;1736090;82;20910;-69
2022/06/09 00:29:18;;;;;;;7.97;6.03;;;;;;;15.63;59.18;100155.98;1735511;81;20881;-69
2022/06/09 00:31:45;;;;;;;8.53;6.58;;;;;;;15.59;59.23;100147.94;1723632;82;20866;-69
2022/06/09 00:34:11;;;;;;;7.53;6.90;;;;;;;15.59;59.29;100157.06;1743657;81;20901;-69
2022/06/09 00:36:37;;;;;;;8.88;7.85;;;;;;;15.58;59.36;100156.67;1743721;81;20922;-69
2022/06/09 00:39:04;;;;;;;7.90;7.17;;;;;;;15.58;59.45;100151.46;1743798;81;20894;-69
2022/06/09 00:41:40;;;;;;;6.33;5.83;;;;;;;15.55;59.61;100147.20;1743762;82;20890;-69
2022/06/09 00:44:25;;;;;;;6.65;6.15;;;;;;;15.55;59.61;100147.20;1743531;81;21617;-69
2022/06/09 00:47:09;;;;;;;6.92;6.33;;;;;;;15.52;59.60;100148.63;1736882;81;20847;-69
2022/06/09 00:49:47;;;;;;;8.10;7.40;;;;;;;15.50;59.62;100150.92;1739981;82;20897;-69
2022/06/09 00:52:17;;;;;;;7.40;6.70;;;;;;;15.47;59.72;100147.14;1743213;81;20885;-69
2022/06/09 00:54:52;;;;;;;7.53;6.83;;;;;;;15.49;59.83;100153.13;1741486;81;20854;-69
2022/06/09 00:57:29;;;;;;;7.28;6.58;;;;;;;15.50;59.87;100145.25;1743810;81;20874;-69
2022/06/09 01:00:03;;;;;;;7.15;6.65;;;;;;;15.49;59.85;100146.62;1741687;80;20933;-69
2022/06/09 01:02:30;;;;;;;6.35;5.75;;;;;;;15.43;59.94;100144.28;1702358;83;20916;-69
2022/06/09 01:04:56;;;;;;;;;;;;;;;15.39;59.99;100146.17;1727790;83;20925;-69
2022/06/09 01:07:31;;;;;;;6.35;5.85;;;;;;;15.35;60.34;100143.77;1725694;82;20124;-69
2022/06/09 01:09:56;;;;;;;6.97;6.37;;;;;;;15.32;60.06;100146.49;1739741;82;20882;-69
2022/06/09 01:12:31;;;;;;;;;;;;;;;15.29;60.12;100144.02;1727921;83;20892;-69
2022/06/09 01:15:11;;;;;;;7.95;7.35;;;;;;;15.27;60.71;100145.39;1740439;82;20427;-69
2022/06/09 01:18:17;;;;;;;7.33;6.62;;;;;;;15.26;60.29;100149.36;1743746;81;20945;-69
2022/06/09 01:21:04;;;;;;;6.70;6.20;;;;;;;15.23;60.27;100144.67;1731999;82;20925;-69
2022/06/09 01:24:06;;;;;;;6.78;6.12;;;;;;;15.17;60.30;100146.23;1737381;81;20977;-69
2022/06/09 01:27:12;;;;;;;6.60;6.10;;;;;;;15.12;60.37;100139.06;1695745;82;21465;-69
2022/06/09 01:30:14;;;;;;;6.30;5.85;;;;;;;15.09;60.45;100141.80;1725605;81;20908;-69
2022/06/09 01:32:57;;;;;;;6.55;6.03;;;;;;;15.11;60.48;100141.28;1740966;82;20910;-69
2022/06/09 01:35:44;;;;;;;6.17;5.67;;;;;;;15.05;60.49;100140.72;1695100;84;20947;-69
2022/06/09 01:38:11;;;;;;;5.12;4.72;;;;;;;15.02;60.54;100139.55;1741096;82;20942;-69
2022/06/09 01:40:37;;;;;;;6.25;5.50;;;;;;;14.95;60.62;100138.11;1725937;83;20927;-69
2022/06/09 01:43:06;;;;;;;7.12;6.45;;;;;;;14.92;60.67;100138.23;1722768;82;20894;-69
2022/06/09 01:46:04;;;;;;;8.73;5.90;;;;;;;14.88;60.72;100140.97;1743993;81;20922;-69
2022/06/09 01:48:33;;;;;;;6.40;5.80;;;;;;;14.84;60.82;100137.25;1742745;81;20938;-69
2022/06/09 01:51:08;;;;;;;7.05;6.37;;;;;;;14.82;60.87;100133.86;1712059;82;20932;-69
2022/06/09 01:53:58;;;;;;;6.53;6.03;;;;;;;14.81;60.94;100136.07;1704872;84;20940;-69
2022/06/09 01:56:35;;;;;;;7.20;5.90;;;;;;;14.80;61.00;100127.42;1705345;84;20873;-69
2022/06/09 01:59:10;;;;;;;6.45;5.85;;;;;;;14.79;61.08;100124.42;1681953;83;20920;-69
2022/06/09 02:01:41;;;;;;;6.45;5.95;;;;;;;14.79;61.13;100124.42;1705577;83;20921;-69
2022/06/09 02:04:16;;;;;;;6.30;5.80;;;;;;;14.75;61.13;100125.91;1705599;84;20884;-69
2022/06/09 02:06:44;;;;;;;6.62;6.08;;;;;;;14.75;61.20;100117.65;1697263;84;20920;-69
2022/06/09 02:09:10;;;;;;;6.55;6.05;;;;;;;14.74;61.27;100113.35;1705497;83;20861;-69
2022/06/09 02:11:50;;;;;;;7.33;6.70;;;;;;;14.73;61.33;100111.66;1712454;82;20888;-69
2022/06/09 02:14:27;;;;;;;6.97;6.28;;;;;;;14.71;61.34;100106.97;1712513;83;20884;-69
2022/06/09 02:16:55;;;;;;;6.00;5.53;;;;;;;14.68;61.36;100104.49;1705780;83;20892;-69
2022/06/09 02:19:23;;;;;;;7.30;6.55;;;;;;;14.65;61.42;100106.38;1716445;82;20938;-69
2022/06/09 02:21:50;;;;;;;5.97;5.37;;;;;;;14.64;61.45;100101.63;1688460;83;20906;-69
2022/06/09 02:24:16;;;;;;;5.78;5.33;;;;;;;14.60;61.48;100100.05;1716774;82;20867;-69
2022/06/09 02:26:44;;;;;;;6.30;5.58;;;;;;;14.54;61.52;100103.78;1705785;83;20877;-69
2022/06/09 02:29:11;;;;;;;6.40;5.42;;;;;;;14.52;61.61;100104.75;1705943;83;20940;-69
2022/06/09 02:31:37;;;;;;;5.60;5.20;;;;;;;14.49;61.63;100107.48;1700352;83;20953;-69
2022/06/09 02:34:05;;;;;;;5.78;5.28;;;;;;;14.45;61.64;100100.25;1703758;82;20842;-69
2022/06/09 02:36:32;;;;;;;6.87;5.75;;;;;;;14.42;61.70;100104.27;1712769;83;20885;-69
2022/06/09 02:38:58;;;;;;;7.15;6.45;;;;;;;14.36;61.68;100099.28;1704118;83;21326;-69
2022/06/09 02:41:24;;;;;;;6.70;6.20;;;;;;;14.32;61.91;100099.01;1712854;83;20861;-69
2022/06/09 02:43:51;;;;;;;6.25;5.75;;;;;;;14.35;61.99;100101.48;1712754;83;20882;-69
2022/06/09 02:46:17;;;;;;;6.65;6.10;;;;;;;14.34;62.04;100102.84;1712277;83;24321;-69
2022/06/09 02:48:44;;;;;;;6.10;5.60;;;;;;;14.36;62.10;100107.08;1712665;83;20917;-69
2022/06/09 02:51:26;;;;;;;6.45;5.75;;;;;;;14.33;62.07;100094.20;1712403;83;20849;-69
2022/06/09 02:53:54;;;;;;;6.83;6.22;;;;;;;14.33;62.10;100104.60;1712540;83;20888;-69
2022/06/09 02:56:21;;;;;;;6.45;5.95;;;;;;;14.27;62.14;100110.50;1683605;84;20902;-69
2022/06/09 02:58:47;;;;;;;7.10;6.40;;;;;;;14.26;62.27;100108.35;1681983;84;20908;-69
2022/06/09 03:01:14;;;;;;;5.95;5.45;;;;;;;14.26;62.30;100105.75;1740864;82;20898;-69
2022/06/09 03:03:41;;;;;;;6.80;6.20;;;;;;;14.27;62.35;100111.34;1743813;81;20894;-69
2022/06/09 03:06:08;;;;;;;6.72;6.17;;;;;;;14.29;62.40;100113.43;1742528;81;20952;-69
2022/06/09 03:08:34;;;;;;;6.37;5.87;;;;;;;14.30;62.41;100109.92;1742459;81;20926;-69
2022/06/09 03:11:01;;;;;;;7.80;6.10;;;;;;;14.30;62.45;100111.23;1734465;81;20901;-69
2022/06/09 03:13:27;;;;;;;6.67;6.08;;;;;;;14.30;62.48;100106.02;1743708;82;20928;-69
2022/06/09 03:15:54;;;;;;;6.72;6.22;;;;;;;14.27;62.56;100110.05;1725669;82;20952;-69
2022/06/09 03:18:25;;;;;;;6.60;6.10;;;;;;;14.29;62.64;100106.08;1741036;82;20901;-69
2022/06/09 03:20:51;;;;;;;6.65;6.08;;;;;;;14.30;62.63;100106.02;1700848;83;21032;-69
2022/06/09 03:23:18;;;;;;;7.42;6.20;;;;;;;14.29;62.73;100109.53;1728110;82;20950;-69
2022/06/09 03:25:45;;;;;;;5.42;5.03;;;;;;;14.30;62.77;100110.38;1695957;84;20884;-69
2022/06/09 03:28:11;;;;;;;5.78;5.33;;;;;;;14.28;62.76;100116.94;1722696;83;20960;-69
2022/06/09 03:30:38;;;;;;;5.35;4.95;;;;;;;14.26;62.73;100122.66;1730347;82;20887;-69
2022/06/09 03:33:05;;;;;;;6.42;5.90;;;;;;;14.27;62.84;100123.50;1696103;84;20880;-69
2022/06/09 03:35:31;;;;;;;6.17;5.67;;;;;;;14.22;62.77;100116.72;1740574;82;20929;-69
2022/06/09 03:37:58;;;;;;;7.40;6.80;;;;;;;14.21;62.87;100116.33;1743855;81;20898;-69
2022/06/09 03:40:28;;;;;;;7.47;6.78;;;;;;;14.22;63.07;100110.67;1731304;81;21388;-69
2022/06/09 03:42:55;;;;;;;6.65;6.15;;;;;;;14.30;63.09;100116.88;1739806;81;20902;-69
2022/06/09 03:45:22;;;;;;;7.40;6.80;;;;;;;14.36;63.17;100119.24;1704654;81;20920;-69
2022/06/09 03:47:48;;;;;;;8.18;6.53;;;;;;;14.41;63.19;100120.79;1713242;81;20921;-69
2022/06/09 03:50:19;;;;;;;6.72;6.30;;;;;;;14.42;63.16;100118.58;1729439;82;20858;-69
2022/06/09 03:52:47;;;;;;;6.62;6.03;;;;;;;14.47;63.28;100120.55;1719734;82;20912;-69
2022/06/09 03:55:14;;;;;;;6.03;4.92;;;;;;;14.52;63.22;100133.38;1730563;82;20968;-69
2022/06/09 03:57:40;;;;;;;5.30;4.92;;;;;;;14.51;63.20;100133.83;1720116;81;149708;-70
2022/06/09 04:00:12;;;;;;;4.97;4.53;;;;;;;14.48;63.08;100127.44;1688826;83;20912;-69
2022/06/09 04:02:38;;;;;;;7.75;5.65;;;;;;;14.38;63.16;100126.08;1735669;82;20982;-69
2022/06/09 04:05:06;;;;;;;8.05;5.60;;;;;;;14.40;63.47;100121.66;1725769;81;20948;-69
2022/06/09 04:07:32;;;;;;;6.72;6.12;;;;;;;14.50;63.54;100125.63;1728998;82;20942;-69
2022/06/09 04:09:58;;;;;;;5.90;5.35;;;;;;;14.60;63.62;100130.44;1716389;83;20912;-69
2022/06/09 04:12:25;;;;;;;6.65;6.12;;;;;;;14.65;63.57;100129.80;1701254;83;20928;-69
2022/06/09 04:14:52;;;;;;;6.12;5.67;;;;;;;14.67;63.56;100127.98;1701887;83;20925;-69
2022/06/09 04:17:18;;;;;;;6.80;6.20;;;;;;;14.66;63.57;100135.39;1700807;83;21056;-70
2022/06/09 04:19:51;;;;;;;6.33;5.72;;;;;;;14.70;63.71;100136.96;1691712;83;20893;-70
2022/06/09 04:22:17;;;;;;;6.92;6.20;;;;;;;14.78;63.83;100143.55;1686411;84;20969;-69
2022/06/09 04:24:44;;;;;;;6.75;6.25;;;;;;;14.87;63.87;100142.33;1703458;83;20925;-69
2022/06/09 04:27:10;;;;;;;7.10;6.35;;;;;;;14.99;63.96;100135.77;1687128;84;20933;-69
2022/06/09 04:29:37;;;;;;;6.83;6.33;;;;;;;15.08;63.97;100142.71;1691201;83;20949;-70
2022/06/09 04:32:04;;;;;;;8.20;7.50;;;;;;;15.18;64.03;100150.53;1700793;82;21031;-70
2022/06/09 04:34:31;;;;;;;7.60;6.90;;;;;;;15.23;64.08;100149.03;1700392;83;20964;-69
2022/06/09 04:36:57;;;;;;;7.72;7.10;;;;;;;15.35;64.20;100152.87;1685980;82;21458;-69
2022/06/09 04:39:23;;;;;;;7.97;7.17;;;;;;;15.46;64.21;100157.17;1702546;83;20905;-69
2022/06/09 04:41:50;;;;;;;9.35;8.40;;;;;;;15.57;64.29;100154.98;1694912;82;20976;-69
2022/06/09 04:44:16;;;;;;;9.50;8.68;;;;;;;15.70;64.39;100156.56;1697402;82;20957;-70
2022/06/09 04:46:42;;;;;;;12.40;11.18;;;;;;;15.80;64.45;100152.63;1704750;82;20936;-69
2022/06/09 04:49:09;;;;;;;11.55;9.55;;;;;;;15.96;64.55;100154.09;1693748;82;20936;-70
2022/06/09 04:51:35;;;;;;;10.25;9.35;;;;;;;16.12;64.55;100158.97;1698794;82;20882;-70
2022/06/09 04:54:01;;;;;;;11.10;10.10;;;;;;;16.28;64.58;100167.78;1698544;82;21538;-70
2022/06/09 04:56:28;;;;;;;16.90;11.28;;;;;;;16.41;64.60;100171.51;1696435;82;20984;-70
2022/06/09 04:58:54;;;;;;;12.07;11.08;;;;;;;16.54;64.69;100173.09;1738797;80;21478;-72
2022/06/09 05:01:29;;;;;;;12.75;11.40;;;;;;;16.71;64.86;100177.50;1738192;80;20942;-72
2022/06/09 05:03:55;;;;;;;12.35;11.05;;;;;;;16.79;64.81;100181.44;1737620;82;20922;-72
2022/06/09 05:06:23;;;;;;;11.80;10.60;;;;;;;16.98;65.06;100178.77;1742475;81;20909;-73
2022/06/09 05:08:52;;;;;;;12.88;11.65;;;;;;;17.19;65.02;100179.45;1742282;81;20977;-72
2022/06/09 05:11:20;;;;;;;12.35;11.25;;;;;;;17.37;65.12;100178.98;1738875;81;21012;-72
2022/06/09 05:13:47;;;;;;;12.35;11.15;;;;;;;17.52;65.10;100176.44;1731472;82;21473;-72
2022/06/09 05:16:14;;;;;;;;;;;;;;;17.65;65.05;100174.49;1743894;81;21068;-72
2022/06/09 05:18:40;;;;;;;;;;;;;;;17.74;65.54;100176.63;1723641;82;20592;-72
2022/06/09 05:21:09;;;;;;;14.80;13.48;;;;;;;17.79;65.50;100180.70;1736324;82;20218;-72
2022/06/09 05:23:38;;;;;;;17.05;14.73;;;;;;;17.86;65.24;100187.76;1733373;82;21063;-72
2022/06/09 05:26:07;;;;;;;18.20;15.50;;;;;;;18.00;65.31;100185.72;1738241;82;21008;-72
2022/06/09 05:28:34;;;;;;;16.97;15.25;;;;;;;18.09;65.34;100182.61;1729771;81;21585;-72
2022/06/09 05:31:01;;;;;;;20.65;16.07;;;;;;;18.21;65.42;100179.30;1741375;82;21473;-72
2022/06/09 05:33:28;;;;;;;17.10;15.28;;;;;;;18.31;65.42;100184.42;1717361;81;21099;-72
2022/06/09 05:35:57;;;;;;;18.62;16.90;;;;;;;18.38;65.42;100180.53;1722083;80;20952;-72
2022/06/09 05:46:46;;;;;;;17.60;15.40;;;;;;;18.68;65.67;100188.97;1731418;81;21027;-72
2022/06/09 05:49:14;;;;;;;17.85;14.73;;;;;;;18.75;65.65;100192.90;1700447;82;24922;-72
2022/06/09 05:51:40;;;;;;;17.73;14.93;;;;;;;18.80;65.71;100196.10;1737482;82;21087;-72
2022/06/09 05:54:13;;;;;;;16.70;14.98;;;;;;;18.89;65.74;100197.36;1740202;81;21580;-72
2022/06/09 05:56:40;;;;;;;18.05;16.23;;;;;;;18.99;65.80;100201.98;1731394;80;21084;-72
2022/06/09 05:59:07;;;;;;;16.12;14.40;;;;;;;19.09;65.83;100201.00;1729056;81;21036;-73
2022/06/09 06:01:33;;;;;;;15.68;14.23;;;;;;;19.12;65.78;100205.59;1705240;83;21558;-73
2022/06/09 06:04:03;;;;;;;18.73;14.50;;;;;;;19.19;65.93;100204.77;1730922;82;21148;-73
2022/06/09 06:06:35;;;;;;;16.62;14.13;;;;;;;19.24;65.94;100208.41;1692363;84;21484;-73
2022/06/09 06:09:05;;;;;;;15.45;14.05;;;;;;;19.36;66.07;100204.61;1733033;82;21403;-73
2022/06/09 06:11:34;;;;;;;16.50;14.07;;;;;;;19.48;66.07;100203.88;1729911;82;21472;-72
2022/06/09 06:14:01;;;;;;;15.28;13.98;;;;;;;19.59;66.08;100205.91;1695785;83;21581;-72
2022/06/09 06:16:28;;;;;;;15.38;13.65;;;;;;;19.82;66.24;100213.67;1731499;82;26730;-72
2022/06/09 06:18:55;;;;;;;15.20;13.85;;;;;;;20.13;66.22;100215.27;1690771;84;21027;-72
2022/06/09 06:21:22;;;;;;;14.07;12.75;;;;;;;20.48;66.29;100207.82;1734300;82;20961;-72
2022/06/09 06:23:49;;;;;;;14.07;12.85;;;;;;;20.89;66.39;100212.17;1693078;83;21428;-72
2022/06/09 06:26:16;;;;;;;15.40;13.15;;;;;;;21.31;66.42;100212.02;1702900;83;20995;-72
2022/06/09 06:28:43;;;;;;;13.48;12.33;;;;;;;21.79;66.35;100211.77;1689469;84;21419;-72
2022/06/09 06:31:11;;;;;;;14.75;13.48;;;;;;;22.10;66.26;100213.13;1700442;83;21537;-72
2022/06/09 06:33:38;;;;;;;15.00;13.38;;;;;;;22.37;66.39;100209.45;1735664;82;21419;-72
2022/06/09 06:36:04;;;;;;;14.33;12.93;;;;;;;22.76;66.28;100203.95;1734371;82;20910;-72
2022/06/09 06:38:31;;;;;;;14.47;12.80;;;;;;;23.12;66.36;100208.80;1719200;82;22030;-72
2022/06/09 06:40:58;;;;;;;13.22;12.13;;;;;;;23.40;66.36;100208.85;1733109;81;21087;-72
2022/06/09 06:43:24;;;;;;;;;;;;;;;23.67;66.27;100207.27;1734566;82;22168;-72
2022/06/09 06:45:52;;;;;;;16.48;11.65;;;;;;;23.95;65.89;100209.91;1731670;82;20193;-72
2022/06/09 06:48:18;;;;;;;13.50;12.05;;;;;;;24.29;66.24;100206.80;1727652;80;363292;-72
2022/06/09 06:50:45;;;;;;;12.80;11.65;;;;;;;24.48;66.07;100206.98;1760771;80;21487;-72
2022/06/09 06:53:12;;;;;;;12.98;11.90;;;;;;;24.64;66.16;100209.23;1758102;80;21340;-72
2022/06/09 06:55:39;;;;;;;;;;;;;;;24.93;66.21;100206.87;1762126;80;20911;-72
2022/06/09 06:58:06;;;;;;;12.93;11.73;;;;;;;25.10;65.36;100201.51;1752837;81;20132;-73
2022/06/09 07:00:33;;;;;;;12.30;11.18;;;;;;;25.17;65.86;100206.65;1757247;81;21354;-73
2022/06/09 07:02:59;;;;;;;14.23;12.78;;;;;;;25.28;65.65;100200.81;1749813;80;20949;-73
2022/06/09 07:05:26;;;;;;;14.15;12.95;;;;;;;25.52;65.67;100207.63;1759414;80;20866;-73
2022/06/09 07:07:58;;;;;;;14.05;12.82;;;;;;;25.90;65.69;100211.02;1758105;80;21493;-73
2022/06/09 07:10:25;;;;;;;13.32;11.97;;;;;;;26.27;65.37;100220.07;1748496;80;21446;-73
2022/06/09 07:12:51;;;;;;;;;;;;;;;26.58;65.14;100214.22;1720802;81;20915;-73
2022/06/09 07:15:18;;;;;;;;;;;;;;;26.87;64.39;100214.75;1727732;82;20522;-73
2022/06/09 07:17:44;;;;;;;;;;;;;;;27.08;64.32;100213.30;1768951;80;20407;-73
2022/06/09 07:20:13;;;;;;;12.07;11.12;;;;;;;27.48;64.41;100212.64;1770899;79;20417;-73
2022/06/09 07:22:39;;;;;;;11.88;10.70;;;;;;;27.67;64.48;100217.07;1765904;80;21437;-73
2022/06/09 07:25:07;;;;;;;11.48;10.55;;;;;;;27.55;64.15;100216.40;1767786;80;21268;-73
2022/06/09 07:27:34;;;;;;;12.75;11.68;;;;;;;27.53;64.10;100225.00;1770520;80;21547;-73
2022/06/09 07:30:00;;;;;;;11.75;10.85;;;;;;;27.59;63.74;100219.61;1769505;79;27354;-73
2022/06/09 07:32:28;;;;;;;13.25;11.97;;;;;;;27.48;63.31;100215.30;1757068;81;21087;-73
2022/06/09 07:34:54;;;;;;;12.93;11.53;;;;;;;27.25;63.19;100220.07;1756128;81;21040;-73
2022/06/09 07:37:27;;;;;;;12.68;11.63;;;;;;;26.97;62.89;100220.45;1762348;80;21042;-73
2022/06/09 07:39:53;;;;;;;12.63;11.35;;;;;;;26.69;62.85;100219.89;1768804;80;21348;-73
2022/06/09 07:42:20;;;;;;;14.05;12.37;;;;;;;26.50;62.65;100222.54;1766768;80;21090;-73
2022/06/09 07:44:46;;;;;;;;;;;;;;;26.41;62.54;100224.67;1771603;79;21374;-73
2022/06/09 07:47:13;;;;;;;11.78;9.55;;;;;;;26.28;62.02;100225.72;1764491;80;20334;-73
2022/06/09 07:49:40;;;;;;;11.08;10.18;;;;;;;26.03;62.15;100230.99;1705958;83;21059;-73
2022/06/09 07:52:07;;;;;;;11.48;10.38;;;;;;;25.76;61.95;100240.02;1709293;82;21115;-73
2022/06/09 07:54:33;;;;;;;;;;;;;;;25.57;61.77;100240.70;1711933;83;21030;-73
2022/06/09 07:56:59;;;;;;;10.35;9.55;;;;;;;25.36;61.60;100237.23;1752771;80;20203;-73
2022/06/09 07:59:25;;;;;;;10.63;9.70;;;;;;;25.09;61.49;100232.42;1725611;81;21022;-73
2022/06/09 08:01:52;;;;;;;9.25;8.65;;;;;;;25.02;61.61;100235.21;1713999;82;21073;-73
2022/06/09 08:04:18;;;;;;;8.30;7.70;;;;;;;25.01;61.39;100230.41;1735910;81;21107;-73
2022/06/09 08:06:44;;;;;;;10.18;9.18;;;;;;;25.08;61.37;100224.97;1718815;82;21040;-73
2022/06/09 08:09:12;;;;;;;8.80;8.18;;;;;;;25.27;61.33;100223.44;1706636;82;21112;-73
2022/06/09 08:11:40;;;;;;;10.08;9.38;;;;;;;25.43;61.05;100226.48;1716951;82;21077;-73
2022/06/09 08:14:08;;;;;;;;;;;;;;;25.54;60.95;100228.20;1738102;81;21053;-73
2022/06/09 08:16:35;;;;;;;8.98;8.08;;;;;;;25.63;60.72;100227.42;1732057;81;20203;-73
2022/06/09 08:19:03;;;;;;;9.35;8.68;;;;;;;25.69;60.72;100225.12;1709357;83;21053;-73
2022/06/09 08:21:30;;;;;;;8.65;7.87;;;;;;;25.67;60.56;100225.74;1776532;80;21465;-73
2022/06/09 08:23:56;;;;;;;8.38;7.78;;;;;;;25.69;60.58;100225.61;1737478;81;21033;-73
2022/06/09 08:26:27;;;;;;;7.92;7.33;;;;;;;25.69;60.43;100226.45;1735035;81;21080;-73
2022/06/09 08:28:54;;;;;;;8.05;7.37;;;;;;;25.78;60.43;100230.61;1761781;80;21073;-73
2022/06/09 08:31:22;;;;;;;7.95;7.35;;;;;;;25.86;60.16;100226.82;1740414;81;20985;-73
2022/06/09 08:33:48;;;;;;;7.30;6.70;;;;;;;25.83;60.18;100232.38;1741121;81;20855;-73
2022/06/09 08:36:14;;;;;;;8.60;7.80;;;;;;;25.85;60.16;100231.77;1765939;80;21026;-73
2022/06/09 08:38:41;;;;;;;7.90;7.20;;;;;;;26.06;60.13;100225.91;1739240;82;20962;-73
2022/06/09 08:41:37;;;;;;;7.65;7.05;;;;;;;26.14;59.68;100230.55;1740530;81;21280;-73
2022/06/09 08:44:56;;;;;;;7.50;7.00;;;;;;;26.19;59.92;100226.52;1769472;80;20913;-72
2022/06/09 08:47:48;;;;;;;7.03;6.45;;;;;;;26.26;59.74;100228.16;1718789;82;20906;-72
2022/06/09 08:50:23;;;;;;;7.05;6.22;;;;;;;26.19;59.64;100233.64;1688806;84;21407;-72
2022/06/09 08:53:19;;;;;;;6.78;6.28;;;;;;;26.17;59.37;100231.13;1676156;84;20902;-72
2022/06/09 08:55:53;;;;;;;6.45;6.05;;;;;;;26.03;59.21;100230.16;1695990;83;20974;-72
2022/06/09 08:58:40;;;;;;;7.25;6.60;;;;;;;25.82;59.26;100235.52;1700169;83;20956;-74
2022/06/09 09:01:24;;;;;;;6.62;6.10;;;;;;;25.75;59.25;100238.33;1700859;83;20972;-73
2022/06/09 09:04:15;;;;;;;7.10;6.60;;;;;;;25.68;59.07;100241.98;1709664;83;20938;-72
2022/06/09 09:07:12;;;;;;;6.92;6.25;;;;;;;25.44;58.95;100241.89;1715880;83;20938;-72
2022/06/09 09:09:45;;;;;;;6.33;5.83;;;;;;;25.28;58.85;100243.16;1713042;82;21077;-72
2022/06/09 09:12:28;;;;;;;7.15;6.50;;;;;;;25.07;58.94;100232.55;1701657;83;21144;-72
2022/06/09 09:15:13;;;;;;;6.08;5.58;;;;;;;24.96;58.68;100246.30;1694750;82;21064;-72
2022/06/09 09:17:44;;;;;;;6.47;5.97;;;;;;;24.74;58.73;100244.55;1729335;80;21068;-72
2022/06/09 09:20:29;;;;;;;7.22;6.55;;;;;;;24.67;58.85;100243.36;1746852;80;21093;-72
2022/06/09 09:23:13;;;;;;;6.15;5.75;;;;;;;24.43;58.66;100226.38;1747847;80;21000;-72
2022/06/09 09:25:59;;;;;;;7.17;6.67;;;;;;;24.43;58.66;100226.38;1755227;80;21028;-72
2022/06/09 09:28:31;;;;;;;6.53;6.03;;;;;;;24.51;58.76;100241.11;1759326;80;21092;-72
2022/06/09 09:31:32;;;;;;;6.12;5.62;;;;;;;24.46;58.72;100249.88;1753121;80;20976;-72
2022/06/09 09:34:01;;;;;;;7.05;6.12;;;;;;;24.42;58.71;100251.13;1734783;80;21065;-72
2022/06/09 09:36:37;;;;;;;6.83;6.33;;;;;;;24.37;58.63;100254.61;1755310;81;21384;-72
2022/06/09 09:39:24;;;;;;;6.25;5.75;;;;;;;24.27;58.67;100257.61;1758601;80;21084;-72
2022/06/09 09:42:14;;;;;;;9.63;6.30;;;;;;;24.17;58.70;100256.14;1745583;80;20973;-72
2022/06/09 09:44:41;;;;;;;7.42;6.72;;;;;;;24.10;58.94;100254.94;1737171;80;20948;-72
2022/06/09 09:47:12;;;;;;;7.50;6.25;;;;;;;24.08;58.93;100256.85;1743801;80;21299;-72
2022/06/09 09:49:47;;;;;;;5.25;4.95;;;;;;;24.07;58.98;100257.33;1731594;80;20993;-72
2022/06/09 09:52:39;;;;;;;6.25;5.72;;;;;;;23.99;58.90;100255.77;1757306;80;21284;-72
2022/06/09 09:55:32;;;;;;;6.03;5.60;;;;;;;23.90;58.88;100258.31;1754110;80;21044;-72
2022/06/09 09:58:39;;;;;;;6.05;5.45;;;;;;;23.78;58.92;100260.56;1740962;80;21053;-73
2022/06/09 10:01:20;;;;;;;7.10;6.50;;;;;;;23.65;58.99;100270.73;1725491;82;20926;-72
2022/06/09 10:09:45;;;;;;;9.43;6.78;;;;;;;23.33;59.45;100281.55;1738792;81;21572;-73
2022/06/09 10:12:29;;;;;;;9.68;6.75;;;;;;;23.28;59.55;100278.41;1729860;81;21128;-73
2022/06/09 10:15:17;;;;;;;8.15;7.20;;;;;;;23.17;59.69;100287.59;1713250;82;21017;-73
2022/06/09 10:18:17;;;;;;;7.30;6.80;;;;;;;23.11;59.80;100291.52;1741888;81;21573;-72
2022/06/09 10:20:52;;;;;;;7.55;6.78;;;;;;;23.06;60.06;100289.69;1737176;82;21116;-72
2022/06/09 10:23:54;;;;;;;8.23;7.20;;;;;;;22.99;60.11;100298.52;1728032;81;20981;-72
2022/06/09 10:26:34;;;;;;;7.85;7.25;;;;;;;22.96;60.32;100297.90;1725392;82;20949;-72
2022/06/09 10:29:37;;;;;;;8.28;6.97;;;;;;;22.96;60.41;100304.02;1738125;81;20986;-72
2022/06/09 10:32:18;;;;;;;7.45;6.90;;;;;;;22.95;60.60;100302.33;1743114;81;20908;-72
2022/06/09 10:35:06;;;;;;;8.93;8.15;;;;;;;23.04;60.73;100298.19;1737363;81;21363;-72
2022/06/09 10:37:56;;;;;;;8.35;7.67;;;;;;;23.14;61.00;100299.68;1733851;82;20894;-72
2022/06/09 10:40:40;;;;;;;8.50;7.80;;;;;;;23.31;61.16;100299.28;1737525;82;21402;-72
2022/06/09 10:43:33;;;;;;;8.43;7.72;;;;;;;23.45;61.16;100299.07;1731313;81;20899;-72
2022/06/09 10:46:30;;;;;;;7.85;7.15;;;;;;;23.54;61.15;100302.38;1737720;82;20938;-72
2022/06/09 10:55:31;;;;;;;8.58;7.87;;;;;;;23.96;61.32;100296.94;1737474;81;21203;-72
2022/06/09 10:58:23;;;;;;;9.95;9.03;;;;;;;24.07;61.46;100294.31;1741412;80;20867;-73
2022/06/09 11:00:52;;;;;;;10.15;9.18;;;;;;;24.20;61.50;100299.50;1754908;80;20898;-72
2022/06/09 11:03:24;;;;;;;;;;;;;;;24.36;61.50;100304.46;1760846;80;21585;-72
2022/06/09 11:06:16;;;;;;;9.60;8.83;;;;;;;24.36;61.20;100304.46;1754998;80;20127;-72
2022/06/09 11:09:07;;;;;;;8.95;8.25;;;;;;;24.19;61.27;100301.78;1755826;80;21057;-73
2022/06/09 11:12:12;;;;;;;9.75;9.03;;;;;;;24.19;61.52;100303.58;1756595;80;21041;-72
2022/06/09 11:14:54;;;;;;;9.23;8.50;;;;;;;24.34;61.54;100307.22;1708346;82;21138;-72
2022/06/09 11:17:41;;;;;;;8.35;7.65;;;;;;;24.42;61.49;100307.95;1738599;81;21091;-72
2022/06/09 11:20:29;;;;;;;8.53;7.92;;;;;;;24.51;61.37;100305.03;1691428;82;21354;-72
2022/06/09 11:23:33;;;;;;;7.97;7.30;;;;;;;24.55;61.41;100302.51;1761116;80;21374;-72
2022/06/09 11:26:15;;;;;;;8.23;7.53;;;;;;;24.59;61.36;100307.91;1710730;82;368818;-72
2022/06/09 11:28:50;;;;;;;7.97;7.20;;;;;;;24.67;61.36;100304.18;1716751;82;21112;-72
2022/06/09 11:31:49;;;;;;;8.13;7.53;;;;;;;24.69;61.36;100303.58;1722720;82;21044;-72
2022/06/09 11:34:45;;;;;;;8.90;8.15;;;;;;;24.68;61.23;100296.12;1725362;82;20917;-72
2022/06/09 11:37:42;;;;;;;7.55;6.95;;;;;;;24.64;61.33;100295.17;1711225;82;20964;-72
2022/06/09 11:40:31;;;;;;;6.30;5.85;;;;;;;24.72;61.33;100297.56;1725697;81;20944;-72
2022/06/09 11:43:21;;;;;;;7.53;6.35;;;;;;;24.80;61.23;100292.98;1756679;80;20898;-72
2022/06/09 11:46:04;;;;;;;7.75;7.15;;;;;;;24.84;61.02;100291.77;1706654;82;21572;-72
2022/06/09 11:48:37;;;;;;;6.65;6.08;;;;;;;24.85;61.08;100291.29;1725144;81;20986;-72
2022/06/09 11:51:05;;;;;;;7.33;6.72;;;;;;;24.81;60.96;100284.56;1753587;80;20993;-72
2022/06/09 11:53:43;;;;;;;6.12;5.72;;;;;;;24.69;60.97;100268.72;1750650;80;20941;-72
2022/06/09 11:56:46;;;;;;;6.58;6.08;;;;;;;25.02;61.22;100286.32;1760782;80;21526;-72
2022/06/09 11:59:18;;;;;;;7.47;6.97;;;;;;;25.02;61.22;100286.32;1765703;79;21107;-72
2022/06/09 12:02:02;;;;;;;9.80;7.03;;;;;;;25.07;60.70;100289.91;1766253;79;21381;-72
2022/06/09 12:04:57;;;;;;;7.80;7.30;;;;;;;25.16;60.77;100294.45;1766468;79;21044;-72
2022/06/09 12:07:48;;;;;;;7.12;6.62;;;;;;;25.16;60.77;100294.45;1765374;81;21741;-72
2022/06/09 12:10:29;;;;;;;6.78;6.30;;;;;;;25.19;60.65;100288.91;1758201;80;21081;-72
2022/06/09 12:13:19;;;;;;;7.20;6.60;;;;;;;25.19;60.38;100288.91;1764940;79;21275;-72
2022/06/09 12:16:18;;;;;;;7.12;6.53;;;;;;;25.05;60.39;100262.73;1759025;79;20986;-72